GMMX/RAK METAR and TAF weather

Enter ICAO airport designator
Station Type Date Time Source
GMMX METAR 2020/01/17 22:30 UTC NOAA

GMMX 172230Z VRB01KT CAVOK 10/M04 Q1031 NOSIG


Station Type Date Time Source
GMMX Decoded METAR 2020/01/17 22:30 UTC NOAA

Marrakech, Morocco (GMMX) 31-37N 008-02W 466M
Jan 17, 2020 - 05:30 PM EST / 2020.01.17 2230 UTC
Wind: Variable at 1 MPH (1 KT):0
Visibility: greater than 7 mile(s):0
Temperature: 50 F (10 C)
Dew Point: 24 F (-4 C)
Relative Humidity: 37%
Pressure (altimeter): 30.45 in. Hg (1031 hPa)
ob: GMMX 172230Z VRB01KT CAVOK 10/M04 Q1031 NOSIG
cycle: 22

Station Type Date Time Source
GMMX TAF 2020/01/17 18:45 UTC NOAA

TAF GMMX 171700Z 1718/1824 02005KT 8000 NSC

Example: see airport list